Tiempo atmosférico en la estación meteorológica de Isaba/Izaba, Navarra (820 m.)



Fecha
DESCASC
Temp. máxima en grados centígrados (hora)
DESCASC
Temp. mínima en grados centígrados (hora)
DESCASC
Temp. media en grados centígrados
DESCASC
Racha de viento máxima en m/sg (hora)
DESCASC
Velocidad máxima media en intervalos de 10 minutos(hora)
DESCASC
Precipitaciones diarias en mm
DESCASC
Precipitaciones de 00:00 a 06:00 en mm
DESCASC
Precipitaciones de 06:00 a 12:00 en mm
DESCASC
Precipitaciones de 12:00 a 18:00 en mm
DESCASC
Precipitaciones de 18:00 a 24:00 en mm
DESCASC
23-06-2019 29.9 (17:50) 9.4 (05:40) 19.6 10.83 (15:50) 5 (15:10) 0 0 0 0 0
22-06-2019 26.2 (18:10) 4.9 (05:50) 15.6 7.5 (13:00) 3.61 (13:00) 0 0 0 0 0
21-06-2019 16.6 (17:00) 8.7 (23:59) 12.7 10.28 (17:00) 6.67 (17:40) 12.6 9.4 3 0.2 0
20-06-2019 24.5 (13:10) 11.6 (00:00) 18.1 11.67 (17:00) 7.78 (17:00) 0 0 0 0 0
19-06-2019 -- (--) -- (--) -- -- (--) -- (--) -- -- -- -- 0
18-06-2019 -- (--) -- (--) -- -- (--) -- (--) -- 0 0 0 --
17-06-2019 28.4 (15:40) 7.2 (00:00) 17.8 7.78 (13:30) 3.89 (12:10) 0 0 0 0 0
16-06-2019 25.7 (17:30) 3.4 (00:00) 14.6 8.61 (19:30) 5.83 (19:30) 0 0 0 0 0
15-06-2019 22.2 (13:50) 8.7 (00:00) 15.5 12.5 (17:10) 9.17 (17:00) 0.8 0 0.8 0 0
14-06-2019 22.9 (19:00) 9.9 (00:00) 16.4 11.11 (20:40) 7.5 (20:40) 1.8 0 0 1.8 0
13-06-2019 23.3 (17:50) 4.8 (00:00) 14 14.17 (14:10) 6.39 (14:20) 0 0 0 0 0
12-06-2019 18.6 (19:40) 1.9 (00:00) 10.3 8.61 (20:30) 5.28 (20:30) 0 0 0 0 0
11-06-2019 13.9 (16:00) 5.7 (00:00) 9.8 13.06 (13:00) 5.28 (13:00) 3 0.8 0.4 1.6 0.2
10-06-2019 15.9 (14:00) 7.5 (00:00) 11.7 14.72 (16:40) 10 (16:40) 0 0 0 0 0
09-06-2019 23.8 (16:20) 8.9 (00:00) 16.3 12.78 (17:40) 9.44 (17:50) 1.6 0 0 0 1.6
08-06-2019 22.6 (15:30) 1.4 (00:00) 12 11.11 (12:30) 6.11 (19:30) 0 0 0 0 0
07-06-2019 17.3 (15:30) 5.2 (00:00) 11.2 16.94 (00:10) 6.94 (19:10) 17.2 8.8 8.4 0 0
06-06-2019 19.2 (17:00) 4.1 (00:00) 11.7 18.61 (21:40) 8.89 (21:40) 0 0 0 0 0
05-06-2019 11.8 (16:10) 5.5 (00:00) 8.7 9.17 (13:40) 5.56 (13:20) 38.2 3.4 32.2 2.4 0.2
04-06-2019 27.4 (17:30) 10.6 (00:00) 19 16.94 (18:20) 10 (18:20) 10.4 0 0 0 10.4
03-06-2019 28.1 (17:40) 11.1 (00:00) 19.6 9.72 (14:20) 4.44 (15:00) 0 0 0 0 0
02-06-2019 29.5 (16:00) 7.7 (00:00) 18.6 6.67 (14:50) 3.61 (19:20) 0 0 0 0 0
01-06-2019 28.9 (17:10) 7.2 (00:00) 18 7.78 (13:20) 3.33 (12:10) 0 0 0 0 0
31-05-2019 26.7 (16:30) 4.6 (00:00) 15.7 8.33 (16:50) 5.56 (18:30) 0 0 0 0 0
30-05-2019 23.9 (14:50) 4 (00:00) 13.9 13.33 (14:10) 8.89 (14:00) 0 0 0 0 0
29-05-2019 14.6 (16:40) 6.1 (00:00) 10.4 17.78 (14:30) 11.39 (14:30) 0.6 0.6 0 0 0
28-05-2019 14.2 (14:10) 6.4 (00:00) 10.3 12.78 (14:10) 7.78 (14:20) 1.4 0 0 0 1.4

Gráficas

Temp. máximas Temp. mínimas Temp. medias Precipitaciones Rachas de viento máximas Velocidades máximas media en intervalos de 10 minutos

Datos horarios

Fecha y hora oficial Temperatura (ºC) Velocidad del viento (km/h) Dirección del viento Racha (km/h) Dirección de racha Precipitación (mm) Presión (hPa) Tendencia (hPa) Humedad (%)
2019-06-26 23:00:00 27 10 Sur 23 Sudoeste 0 -- -- 25
2019-06-26 22:00:00 27.8 9 Sur 36 Sudeste 0 -- -- 33
2019-06-26 21:00:00 31 12 Sur 38 Sur 0 -- -- 24
2019-06-26 20:00:00 32.4 18 Sudeste 46 Sudeste 0 -- -- 23
2019-06-26 19:00:00 33.4 13 Sur 43 Este 0 -- -- 24
2019-06-26 18:00:00 33.8 16 Sudeste 54 Este 0 -- -- 27
2019-06-26 17:00:00 34 18 Sudeste 51 Este 0 -- -- 22
2019-06-26 16:00:00 34.2 24 Sudeste 62 Este 0 -- -- 20
2019-06-26 15:00:00 33.6 29 Sudeste 60 Sudeste 0 -- -- 21
2019-06-26 14:00:00 33.3 25 Sudeste 58 Sudeste 0 -- -- 21
2019-06-26 13:00:00 33 21 Sudeste 65 Sudeste 0 -- -- 22
2019-06-26 12:00:00 32.1 14 Sur 55 Sudeste 0 -- -- 21
2019-06-26 11:00:00 30.9 11 Sur 38 Sudoeste 0 -- -- 23
2019-06-26 10:00:00 28.5 12 Sur 27 Sur 0 -- -- 28
2019-06-26 09:00:00 24.2 12 Sudoeste 31 Sudoeste 0 -- -- 38
2019-06-26 08:00:00 20 13 Sudoeste 23 Sudoeste 0 -- -- 46
2019-06-26 07:00:00 24.5 15 Sur 28 Sudoeste 0 -- -- 32
2019-06-26 06:00:00 24.1 12 Sur 43 Sur 0 -- -- 33
2019-06-26 05:00:00 20.8 10 Sur 26 Sudoeste 0 -- -- 45
2019-06-26 04:00:00 15.2 4 Nordeste 22 Noroeste 0 -- -- 93
2019-06-26 03:00:00 14.7 4 Norte 13 Noroeste 0 -- -- 97
2019-06-26 02:00:00 15.3 3 Norte 12 Norte 0 -- -- 96
2019-06-26 01:00:00 16.2 5 Norte 9 Norte 0 -- -- 94
2019-06-26 00:00:00 17.4 4 Noroeste 11 Norte 0 -- -- 90
2019-06-25 23:00:00 18.8 5 Norte 11 Noroeste 0 -- -- 86
2019-06-25 22:00:00 20.7 8 Noroeste 12 Noroeste 0 -- -- 78
2019-06-25 21:00:00 23.3 7 Norte 18 Nordeste 0 -- -- 66
2019-06-25 20:00:00 27.5 4 Norte 10 Norte 0 -- -- 52
2019-06-25 19:00:00 29.1 2 Oeste 15 Oeste 0 -- -- 51
2019-06-25 18:00:00 31.7 3 Oeste 14 Sudoeste 0 -- -- 39
2019-06-25 17:00:00 30 6 Sudoeste 31 Sur 0 -- -- 38
2019-06-25 16:00:00 29.9 16 Sudoeste 31 Sudoeste 0 -- -- 37
2019-06-25 15:00:00 30.1 10 Oeste 30 Sudoeste 0 -- -- 37
2019-06-25 14:00:00 29.7 12 Sur 27 Sur 0 -- -- 38
2019-06-25 13:00:00 29 6 Sur 25 Sudoeste 0 -- -- 39
2019-06-25 12:00:00 26.5 13 Sur 27 Sur 0 -- -- 44
2019-06-25 11:00:00 25.1 8 Sur 20 Sur 0 -- -- 48
2019-06-25 10:00:00 22.6 0 Calma 5 Norte 0 -- -- 55
2019-06-25 09:00:00 18.1 0 Calma 6 Norte 0 -- -- 72
2019-06-25 08:00:00 13.9 3 Norte 8 Norte 0 -- -- 88
2019-06-25 07:00:00 11.4 4 Norte 10 Norte 0 -- -- 95
2019-06-25 06:00:00 12 3 Norte 7 Noroeste 0 -- -- 93
2019-06-25 05:00:00 12.3 4 Noroeste 7 Noroeste 0 -- -- 92
2019-06-25 04:00:00 12.9 2 Norte 8 Norte 0 -- -- 92
2019-06-25 03:00:00 13.3 4 Norte 11 Norte 0 -- -- 89
2019-06-25 02:00:00 14.3 4 Norte 12 Noroeste 0 -- -- 86
2019-06-25 01:00:00 15.2 4 Norte 10 Noroeste 0 -- -- 84
2019-06-25 00:00:00 16.6 2 Nordeste 10 Norte 0 -- -- 80
2019-06-24 23:00:00 17.3 2 Nordeste 9 Norte 0 -- -- 78
2019-06-24 22:00:00 19 2 Oeste 8 Norte 0 -- -- 70
2019-06-24 21:00:00 21.4 3 Noroeste 8 Noroeste 0 -- -- 63
2019-06-24 20:00:00 24 6 Noroeste 10 Noroeste 0 -- -- 52
2019-06-24 19:00:00 26.8 6 Oeste 14 Oeste 0 -- -- 33
2019-06-24 18:00:00 26.7 5 Noroeste 24 Sudoeste 0 -- -- 51
2019-06-24 17:00:00 27.3 10 Sudoeste 29 Oeste 0 -- -- 33
2019-06-24 16:00:00 27.8 7 Sudeste 31 Sudoeste 0 -- -- 33
2019-06-24 15:00:00 28.7 18 Sudoeste 44 Sudoeste 0 -- -- 29
2019-06-24 14:00:00 28.1 10 Sur 27 Sur 0 -- -- 32
2019-06-24 13:00:00 27.3 12 Sur 35 Sudoeste 0 -- -- 31
2019-06-24 12:00:00 28.3 14 Sudeste 37 Este 0 -- -- 29
2019-06-24 11:00:00 26.7 8 Sudeste 29 Sur 0 -- -- 38
2019-06-24 10:00:00 24.8 9 Sur 36 Sudeste 0 -- -- 34
2019-06-24 09:00:00 22.5 10 Sudoeste 31 Sur 0 -- -- 41
2019-06-24 08:00:00 22.4 10 Sudoeste 26 Sudoeste 0 -- -- 35
2019-06-24 07:00:00 22.1 9 Sur 32 Sudoeste 0 -- -- 36
2019-06-24 06:00:00 23.3 17 Sudoeste 60 Oeste 0 -- -- 31
2019-06-24 05:00:00 22.1 14 Sudoeste 31 Sudoeste 0 -- -- 38
2019-06-24 04:00:00 22.3 12 Sur 35 Sudoeste 0 -- -- 43
2019-06-24 03:00:00 22.2 15 Sudoeste 37 Sudoeste 0 -- -- 48
2019-06-24 02:00:00 15.1 4 Noroeste 11 Oeste 0 -- -- 90
2019-06-24 01:00:00 15.9 4 Norte 12 Noroeste 0 -- -- 89
2019-06-24 00:00:00 16.4 4 Norte 14 Noroeste 0 -- -- 88
2019-06-23 23:00:00 18.1 3 Noroeste 10 Noroeste 0 -- -- 82
2019-06-23 22:00:00 19.8 5 Noroeste 12 Norte 0 -- -- 77
2019-06-23 21:00:00 22 6 Noroeste 13 Norte 0 -- -- 67
2019-06-23 20:00:00 25 3 Noroeste 10 Noroeste 0 -- -- 58
2019-06-23 19:00:00 28.3 4 Sur 28 Sur 0 -- -- 36
2019-06-23 18:00:00 29.4 9 Sur 31 Sudoeste 0 -- -- 32
2019-06-23 17:00:00 29 9 Sudoeste 24 Sur 0 -- -- 34
2019-06-23 16:00:00 28.7 15 Sudoeste 39 Sudoeste 0 -- -- 32
2019-06-23 15:00:00 28.3 14 Sur 34 Sudoeste 0 -- -- 37
2019-06-23 14:00:00 28.2 15 Sudoeste 35 Sudoeste 0 -- -- 39
2019-06-23 13:00:00 27.3 14 Sudoeste 31 Sudoeste 0 -- -- 41
2019-06-23 12:00:00 26.1 5 Sudoeste 18 Sur 0 -- -- 52
2019-06-23 11:00:00 23.7 5 Sur 26 Sur 0 -- -- 50
2019-06-23 10:00:00 20.9 3 Sudoeste 9 Oeste 0 -- -- 65
2019-06-23 09:00:00 18 3 Noroeste 14 Norte 0 -- -- 75
2019-06-23 08:00:00 12.3 6 Noroeste 15 Noroeste 0 -- -- 90
2019-06-23 07:00:00 10.3 6 Noroeste 17 Noroeste 0 -- -- 96
2019-06-23 06:00:00 9.5 5 Noroeste 12 Norte 0 -- -- 98
2019-06-23 05:00:00 9.6 4 Norte 10 Norte 0 -- -- 97
2019-06-23 04:00:00 9.8 4 Norte 10 Norte 0 -- -- 98
2019-06-23 03:00:00 10.3 3 Norte 11 Noroeste 0 -- -- 97
2019-06-23 02:00:00 10.8 3 Norte 11 Norte 0 -- -- 97
2019-06-23 01:00:00 11.5 4 Norte 9 Norte 0 -- -- 96
2019-06-23 00:00:00 12.5 4 Norte 9 Norte 0 -- -- 93
2019-06-22 23:00:00 14 2 Norte 6 Norte 0 -- -- 89
2019-06-22 22:00:00 15.9 0 Calma 4 Norte 0 -- -- 83
2019-06-22 21:00:00 17.9 0 Calma 8 Noroeste 0 -- -- 71
2019-06-22 20:00:00 21.5 0 Calma 7 Noroeste 0 -- -- 51
2019-06-22 19:00:00 25.6 2 Oeste 20 Oeste 0 -- -- 35
2019-06-22 18:00:00 25.9 5 Sudoeste 17 Sudeste 0 -- -- 32
2019-06-22 17:00:00 25.7 8 Sudoeste 23 Sudoeste 0 -- -- 34
2019-06-22 16:00:00 25.1 9 Sur 21 Sur 0 -- -- 40
2019-06-22 15:00:00 24.3 10 Sur 27 Sudoeste 0 -- -- 46
2019-06-22 14:00:00 23 11 Sur 27 Sur 0 -- -- 45
2019-06-22 13:00:00 23 13 Sur 27 Sur 0 -- -- 46
2019-06-22 12:00:00 21.4 8 Sudoeste 22 Sudoeste 0 -- -- 50
2019-06-22 11:00:00 18.9 2 Nordeste 6 Este 0 -- -- 59
2019-06-22 10:00:00 14.7 3 Este 6 Nordeste 0 -- -- 76
2019-06-22 09:00:00 10.3 2 Norte 10 Noroeste 0 -- -- 99
2019-06-22 08:00:00 5.9 4 Norte 11 Norte 0 -- -- 100
2019-06-22 07:00:00 5.1 6 Norte 14 Norte 0 -- -- 100
2019-06-22 06:00:00 4.9 5 Norte 13 Norte 0 -- -- 100
2019-06-22 05:00:00 5.4 4 Norte 9 Nordeste 0 -- -- 100
2019-06-22 04:00:00 5.6 4 Norte 10 Norte 0 -- -- 100
2019-06-22 03:00:00 6.2 4 Norte 12 Noroeste 0 -- -- 100
2019-06-22 02:00:00 7.1 7 Norte 14 Norte 0 -- -- 99
2019-06-22 01:00:00 7.7 6 Noroeste 18 Noroeste 0 -- -- 98
2019-06-22 00:00:00 8.7 10 Norte 17 Norte 0 -- -- 97
2019-06-21 23:00:00 10.5 6 Nordeste 24 Nordeste 0 -- -- 92
2019-06-21 22:00:00 11.2 8 Nordeste 25 Este 0 -- -- 88
2019-06-21 21:00:00 12.2 15 Nordeste 31 Nordeste 0 -- -- 84
2019-06-21 20:00:00 14.4 21 Nordeste 36 Nordeste 0 -- -- 76
2019-06-21 19:00:00 15.4 21 Nordeste 36 Nordeste 0 -- -- 75
2019-06-21 18:00:00 15.8 22 Nordeste 37 Nordeste 0 -- -- 76
2019-06-21 17:00:00 16.6 22 Nordeste 37 Nordeste 0 -- -- 76
2019-06-21 16:00:00 15.1 20 Nordeste 37 Nordeste 0 -- -- 83
2019-06-21 15:00:00 15.1 15 Nordeste 24 Nordeste 0 -- -- 87
2019-06-21 14:00:00 14.2 10 Este 22 Nordeste 0 -- -- 91
2019-06-21 13:00:00 12.5 8 Nordeste 14 Nordeste 0.2 -- -- 98
2019-06-21 12:00:00 11.6 9 Nordeste 16 Nordeste 1.4 -- -- 98
2019-06-21 11:00:00 11.5 8 Nordeste 19 Norte 0.8 -- -- 98
2019-06-21 10:00:00 11.4 7 Norte 14 Noroeste 0.4 -- -- 99
2019-06-21 09:00:00 11.6 7 Norte 15 Norte 0 -- -- 99
2019-06-21 08:00:00 11.5 4 Noroeste 17 Noroeste 0.2 -- -- 100
2019-06-21 07:00:00 11.6 5 Nordeste 9 Nordeste 0.2 -- -- 100
2019-06-21 06:00:00 11.8 3 Noroeste 8 Norte 0.6 -- -- 99
2019-06-21 05:00:00 12 5 Nordeste 11 Norte 2.8 -- -- 99
2019-06-21 04:00:00 12.3 4 Sudoeste 15 Nordeste 2.6 -- -- 99
2019-06-21 03:00:00 12.5 5 Norte 23 Sudoeste 2 -- -- 98
2019-06-21 02:00:00 12.4 4 Noroeste 26 Nordeste 0.8 -- -- 96
2019-06-21 01:00:00 13.1 3 Noroeste 18 Nordeste 0.6 -- -- 93
2019-06-21 00:00:00 14 14 Nordeste 29 Nordeste 0 -- -- 86
2019-06-20 23:00:00 14.1 9 Nordeste 25 Nordeste 0 -- -- 84
2019-06-20 22:00:00 14.1 9 Nordeste 19 Nordeste 0 -- -- 84
2019-06-20 21:00:00 14.5 11 Nordeste 29 Este 0 -- -- 84
2019-06-20 20:00:00 15.8 15 Nordeste 39 Nordeste 0 -- -- 75
2019-06-20 19:00:00 18.2 22 Nordeste 38 Nordeste 0 -- -- 67
2019-06-20 18:00:00 18.6 21 Nordeste 39 Nordeste 0 -- -- 68
2019-06-20 17:00:00 19.2 28 Nordeste 42 Nordeste 0 -- -- 64
2019-06-20 16:00:00 21.1 26 Nordeste 40 Nordeste 0 -- -- 61
2019-06-20 15:00:00 19.4 23 Nordeste 41 Nordeste 0 -- -- 67
2019-06-20 14:00:00 20.9 21 Nordeste 31 Nordeste 0 -- -- 62
2019-06-20 13:00:00 23.7 5 Norte 21 Nordeste 0 -- -- 58
2019-06-20 12:00:00 19.7 15 Nordeste 22 Nordeste 0 -- -- 68
2019-06-20 11:00:00 20.4 12 Nordeste 22 Nordeste 0 -- -- 62
2019-06-20 10:00:00 17 15 Nordeste 26 Nordeste 0 -- -- 71
2019-06-20 09:00:00 16.2 10 Este 24 Nordeste 0 -- -- 74
2019-06-20 08:00:00 13.7 4 Norte 10 Noroeste 0 -- -- 86
2019-06-20 07:00:00 11.8 4 Norte 10 Noroeste 0 -- -- 94
2019-06-20 06:00:00 11.6 4 Norte 10 Nordeste 0 -- -- 94
2019-06-20 05:00:00 12 5 Nordeste 10 Norte 0 -- -- 94
2019-06-20 04:00:00 11.7 4 Norte 12 Norte 0 -- -- 96
2019-06-20 03:00:00 12.5 5 Norte 13 Norte 0 -- -- 94
2019-06-20 02:00:00 13.2 4 Norte 13 Norte 0 -- -- 92
2019-06-20 01:00:00 14 5 Norte 22 Nordeste 0 -- -- 89
2019-06-20 00:00:00 15.3 9 Nordeste 30 Este 0 -- -- 84
2019-06-19 23:00:00 16.2 15 Nordeste 30 Este 0 -- -- 81
2019-06-19 22:00:00 16.8 5 Nordeste 22 Nordeste 0 -- -- 79
2019-06-19 21:00:00 18.4 13 Nordeste 29 Este 0 -- -- 72
2019-06-19 20:00:00 20.3 15 Nordeste 29 Nordeste 0 -- -- 68
2019-06-19 19:00:00 24.4 2 Noroeste 13 Sudoeste 0 -- -- 46
2019-06-19 18:00:00 24 10 Oeste 24 Sur 0 -- -- 44
2019-06-19 17:00:00 24.5 10 Sur 23 Sur 0 -- -- 39
2019-06-19 16:00:00 23.4 11 Sur 24 Sur 0 -- -- 41
2019-06-19 15:00:00 24.7 9 Sudoeste -- -- -- -- -- 41
2019-06-19 14:00:00 -- -- -- -- -- -- -- -- --
2019-06-19 13:00:00 -- -- -- -- -- -- -- -- --
2019-06-19 12:00:00 -- -- -- -- -- -- -- -- --
2019-06-19 11:00:00 -- -- -- -- -- -- -- -- --
2019-06-19 10:00:00 -- -- -- -- -- -- -- -- --
2019-06-19 09:00:00 -- -- -- -- -- -- -- -- --
2019-06-19 08:00:00 -- -- -- -- -- -- -- -- --
2019-06-19 07:00:00 -- -- -- -- -- -- -- -- --
2019-06-19 06:00:00 -- -- -- -- -- -- -- -- --
2019-06-19 05:00:00 -- -- -- -- -- -- -- -- --
2019-06-19 04:00:00 -- -- -- -- -- -- -- -- --
2019-06-19 03:00:00 -- -- -- -- -- -- -- -- --
2019-06-19 02:00:00 -- -- -- -- -- -- -- -- --
2019-06-19 01:00:00 -- -- -- -- -- -- -- -- --
2019-06-19 00:00:00 -- -- -- -- -- -- -- -- --
2019-06-18 23:00:00 -- -- -- -- -- -- -- -- --
2019-06-18 22:00:00 -- -- -- -- -- -- -- -- --
2019-06-18 21:00:00 -- -- -- -- -- -- -- -- --
2019-06-18 20:00:00 -- -- -- -- -- -- -- -- --
2019-06-18 19:00:00 26.5 11 Sudoeste 30 Sudoeste 0 -- -- 30
2019-06-18 18:00:00 28.1 6 Sudeste 36 Sudoeste 0 -- -- 32
2019-06-18 17:00:00 27.4 22 Sudoeste 50 Sur 0 -- -- 27
2019-06-18 16:00:00 26.6 13 Sudoeste 45 Sur 0 -- -- 30
2019-06-18 15:00:00 26.6 17 Sudoeste 39 Sudoeste 0 -- -- 28
2019-06-18 14:00:00 26.3 18 Sudoeste 43 Sur 0 -- -- 32
2019-06-18 13:00:00 25.8 18 Sudoeste 38 Oeste 0 -- -- 33
2019-06-18 12:00:00 25.3 16 Sudoeste 38 Sudoeste 0 -- -- 35
2019-06-18 11:00:00 26 12 Sur 26 Sur 0 -- -- 32
2019-06-18 10:00:00 23 3 Noroeste 9 Noroeste 0 -- -- 51
2019-06-18 09:00:00 18.3 4 Norte 10 Noroeste 0 -- -- 62
2019-06-18 08:00:00 13.8 6 Noroeste 22 Sudoeste 0 -- -- 72
2019-06-18 07:00:00 15.4 4 Sudoeste 23 Sudoeste 0 -- -- 65
2019-06-18 06:00:00 14.3 5 Oeste 22 Sudoeste 0 -- -- 68
2019-06-18 05:00:00 13.1 5 Norte 16 Noroeste 0 -- -- 77
2019-06-18 04:00:00 13.1 3 Noroeste 16 Noroeste 0 -- -- 77
2019-06-18 03:00:00 12.9 6 Noroeste 17 Noroeste 0 -- -- 77
2019-06-18 02:00:00 12.7 5 Norte 15 Noroeste 0 -- -- 80
2019-06-18 01:00:00 12.7 2 Norte 7 Norte 0 -- -- 83
2019-06-18 00:00:00 13.1 4 Norte 13 Norte 0 -- -- 80
2019-06-17 23:00:00 14.5 3 Norte 9 Norte 0 -- -- 76
2019-06-17 22:00:00 16.7 4 Norte 8 Noroeste 0 -- -- 68
2019-06-17 21:00:00 18.5 4 Norte 10 Noroeste 0 -- -- 60
2019-06-17 20:00:00 23 5 Noroeste 13 Oeste 0 -- -- 40
2019-06-17 19:00:00 27.7 4 Oeste 18 Sudoeste 0 -- -- 24
2019-06-17 18:00:00 27.9 5 Oeste 26 Sur 0 -- -- 26
2019-06-17 17:00:00 28.3 5 Sudoeste 24 Sudoeste 0 -- -- 26
2019-06-17 16:00:00 28 10 Sudoeste 22 Sudoeste 0 -- -- 28
2019-06-17 15:00:00 27.5 10 Sudoeste 24 Sudoeste 0 -- -- 31
2019-06-17 14:00:00 26.4 10 Sudoeste 28 Sur 0 -- -- 32
2019-06-17 13:00:00 25.3 13 Sur 26 Sudoeste 0 -- -- 34
2019-06-17 12:00:00 24.3 12 Sur 20 Sur 0 -- -- 36
2019-06-17 11:00:00 22.3 4 Sur 14 Sudoeste 0 -- -- 46
2019-06-17 10:00:00 18.3 0 Calma 5 Nordeste 0 -- -- 62
2019-06-17 09:00:00 13.5 2 Norte 6 Norte 0 -- -- 81
2019-06-17 08:00:00 8.9 4 Norte 9 Norte 0 -- -- 98
2019-06-17 07:00:00 7.2 4 Norte 11 Norte 0 -- -- 98
2019-06-17 06:00:00 7.4 4 Norte 10 Norte 0 -- -- 98
2019-06-17 05:00:00 8.2 5 Norte 11 Noroeste 0 -- -- 98
2019-06-17 04:00:00 8.9 5 Norte 10 Nordeste 0 -- -- 98
2019-06-17 03:00:00 9.4 5 Norte 8 Norte 0 -- -- 98
2019-06-17 02:00:00 10.3 4 Norte 9 Norte 0 -- -- 96
2019-06-17 01:00:00 11.4 5 Norte 9 Norte 0 -- -- 94
2019-06-17 00:00:00 12.3 5 Norte 9 Norte 0 -- -- 92
2019-06-16 23:00:00 13.6 2 Norte 7 Norte 0 -- -- 89
2019-06-16 22:00:00 15.6 3 Norte 19 Nordeste 0 -- -- 80
2019-06-16 21:00:00 18.3 12 Nordeste 25 Nordeste 0 -- -- 69
2019-06-16 20:00:00 20.5 19 Nordeste 31 Nordeste 0 -- -- 60
2019-06-16 19:00:00 25.4 3 Oeste 19 Oeste 0 -- -- 39
2019-06-16 18:00:00 25.3 5 Oeste 21 Sur 0 -- -- 36
2019-06-16 17:00:00 25.3 8 Oeste 25 Sur 0 -- -- 35
2019-06-16 16:00:00 24.4 10 Sur 24 Sudoeste 0 -- -- 37
2019-06-16 15:00:00 23.6 12 Sudoeste 23 Sur 0 -- -- 34
2019-06-16 14:00:00 23.6 8 Sudoeste 21 Sur 0 -- -- 34
2019-06-16 13:00:00 22.1 11 Sur 22 Sur 0 -- -- 36
2019-06-16 12:00:00 20.8 10 Sur 21 Sur 0 -- -- 39
2019-06-16 11:00:00 19.3 3 Sudeste 8 Sur 0 -- -- 48
2019-06-16 10:00:00 15.2 2 Nordeste 6 Norte 0 -- -- 56
2019-06-16 09:00:00 10.1 2 Nordeste 7 Noroeste 0 -- -- 80
2019-06-16 08:00:00 5.2 4 Norte 9 Nordeste 0 -- -- 98
2019-06-16 07:00:00 3.5 5 Norte 11 Noroeste 0 -- -- 99
2019-06-16 06:00:00 3.7 5 Norte 13 Noroeste 0 -- -- 99
2019-06-16 05:00:00 4.1 5 Norte 10 Norte 0 -- -- 98
2019-06-16 04:00:00 4.7 4 Norte 9 Norte 0 -- -- 98
2019-06-16 03:00:00 5.4 6 Noroeste 12 Noroeste 0 -- -- 97
2019-06-16 02:00:00 6.3 5 Norte 13 Norte 0 -- -- 95
2019-06-16 01:00:00 7.4 4 Noroeste 10 Noroeste 0 -- -- 92
2019-06-16 00:00:00 9.1 4 Oeste 13 Noroeste 0 -- -- 84
2019-06-15 23:00:00 10.6 5 Nordeste 23 Nordeste 0 -- -- 78
2019-06-15 22:00:00 11.5 12 Nordeste 29 Nordeste 0 -- -- 73
2019-06-15 21:00:00 12 11 Nordeste 26 Nordeste 0 -- -- 72
2019-06-15 20:00:00 15.1 8 Norte 27 Nordeste 0 -- -- 64
2019-06-15 19:00:00 14.8 13 Nordeste 45 Nordeste 0 -- -- 64
2019-06-15 18:00:00 16.8 24 Nordeste 45 Este 0 -- -- 59
2019-06-15 17:00:00 16.3 33 Nordeste 45 Nordeste 0 -- -- 59
2019-06-15 16:00:00 17.6 27 Nordeste 39 Nordeste 0 -- -- 59
2019-06-15 15:00:00 17.1 23 Nordeste 36 Nordeste 0 -- -- 58
2019-06-15 14:00:00 20.6 10 Norte 32 Norte 0 -- -- 52
2019-06-15 13:00:00 20.4 15 Norte 24 Norte 0 -- -- 54
2019-06-15 12:00:00 20.8 9 Nordeste 19 Este 0 -- -- 60
2019-06-15 11:00:00 17.7 12 Nordeste 23 Nordeste 0 -- -- 67
2019-06-15 10:00:00 16.3 9 Este 18 Este 0 -- -- 73
2019-06-15 09:00:00 12.8 9 Este 24 Nordeste 0 -- -- 87
2019-06-15 08:00:00 9.1 8 Nordeste 20 Este 0 -- -- 98
2019-06-15 07:00:00 9.1 3 Norte 15 Norte 0.8 -- -- 95
2019-06-15 06:00:00 9 7 Norte 22 Noroeste 0 -- -- 92
2019-06-15 05:00:00 10.2 3 Nordeste 17 Nordeste 0 -- -- 86
2019-06-15 04:00:00 10.4 5 Norte 14 Norte 0 -- -- 89
2019-06-15 03:00:00 9.2 7 Norte 13 Norte 0 -- -- 97
2019-06-15 02:00:00 9.1 7 Norte 14 Noroeste 0 -- -- 97
2019-06-15 01:00:00 9.7 8 Norte 14 Norte 0 -- -- 96
2019-06-15 00:00:00 10.3 6 Norte 13 Norte 0 -- -- 95
2019-06-14 23:00:00 11.2 4 Norte 17 Nordeste 0 -- -- 91
2019-06-14 22:00:00 13 12 Nordeste 29 Nordeste 0 -- -- 83
2019-06-14 21:00:00 14.9 20 Nordeste 40 Nordeste 0 -- -- 76
2019-06-14 20:00:00 20.8 0 Calma 13 Oeste 0 -- -- 52
2019-06-14 19:00:00 22.9 4 Oeste 19 Sudoeste 0 -- -- 46
2019-06-14 18:00:00 21.8 11 Sudoeste 21 Sudoeste 0 -- -- 49
2019-06-14 17:00:00 22.1 5 Sudoeste 21 Sudoeste 0 -- -- 51
2019-06-14 16:00:00 20.5 5 Sur 13 Sur 0 -- -- 71
2019-06-14 15:00:00 16.9 7 Sudoeste 13 Sudoeste 0 -- -- 85
2019-06-14 14:00:00 15 3 Este 26 Sudeste 1.6 -- -- 94
2019-06-14 13:00:00 15.4 4 Sur 20 Sur 0.2 -- -- 80
2019-06-14 12:00:00 16.5 4 Sudoeste 10 Noroeste 0 -- -- 69
2019-06-14 11:00:00 17.4 4 Oeste 13 Sudoeste 0 -- -- 69
2019-06-14 10:00:00 16.7 3 Sur 5 Nordeste 0 -- -- 63
2019-06-14 09:00:00 13.1 0 Calma 9 Norte 0 -- -- 81
2019-06-14 08:00:00 10.8 5 Norte 11 Norte 0 -- -- 91
2019-06-14 07:00:00 10 3 Norte 10 Norte 0 -- -- 93
2019-06-14 06:00:00 10.1 3 Norte 9 Nordeste 0 -- -- 93
2019-06-14 05:00:00 10.7 2 Norte 9 Norte 0 -- -- 92
2019-06-14 04:00:00 11.3 2 Nordeste 11 Norte 0 -- -- 89
2019-06-14 03:00:00 12.2 5 Norte 17 Noroeste 0 -- -- 85
2019-06-14 02:00:00 13.3 7 Noroeste 18 Norte 0 -- -- 80
2019-06-14 01:00:00 15 6 Norte 21 Sur 0 -- -- 68
2019-06-14 00:00:00 17.4 10 Sur 30 Sur 0 -- -- 53
2019-06-13 23:00:00 18.9 11 Sur 30 Sudoeste 0 -- -- 49
2019-06-13 22:00:00 19 9 Sur 18 Sur 0 -- -- 47
2019-06-13 21:00:00 19.8 6 Sur 26 Sudeste 0 -- -- 43
2019-06-13 20:00:00 21.5 12 Sur 35 Sudoeste 0 -- -- 42
2019-06-13 19:00:00 22.8 13 Sudeste 40 Sudeste 0 -- -- 39
2019-06-13 18:00:00 23 12 Sudoeste 36 Sudoeste 0 -- -- 40
2019-06-13 17:00:00 23.2 17 Sur 46 Sudoeste 0 -- -- 39
2019-06-13 16:00:00 22.3 18 Sudoeste 34 Sudoeste 0 -- -- 38
2019-06-13 15:00:00 20.9 13 Sudeste 51 Sur 0 -- -- 48
2019-06-13 14:00:00 19.9 21 Sudoeste 47 Sudoeste 0 -- -- 46
2019-06-13 13:00:00 18.9 17 Sudoeste 39 Sudoeste 0 -- -- 47
2019-06-13 12:00:00 15.9 10 Sudoeste 27 Sudoeste 0 -- -- 53
2019-06-13 11:00:00 14.6 7 Sur 23 Sudoeste 0 -- -- 50
2019-06-13 10:00:00 14.5 9 Sur 24 Sur 0 -- -- 47
2019-06-13 09:00:00 14.2 14 Sur 27 Sur 0 -- -- 48
2019-06-13 08:00:00 13.7 15 Sur 30 Sur 0 -- -- 49
2019-06-13 07:00:00 12.3 15 Sur 39 Sur 0 -- -- 52
2019-06-13 06:00:00 10.3 12 Sur 23 Sudoeste 0 -- -- 61
2019-06-13 05:00:00 5.3 6 Noroeste 20 Noroeste 0 -- -- 90
2019-06-13 04:00:00 4.8 4 Noroeste 14 Noroeste 0 -- -- 95
2019-06-13 03:00:00 5 6 Noroeste 17 Norte 0 -- -- 97
2019-06-13 02:00:00 5.8 10 Norte 21 Norte 0 -- -- 96
2019-06-13 01:00:00 6.2 3 Norte 14 Norte 0 -- -- 95
2019-06-13 00:00:00 7.3 3 Noroeste 11 Noroeste 0 -- -- 92
2019-06-12 23:00:00 8.5 5 Norte 17 Este 0 -- -- 87
2019-06-12 22:00:00 10.2 9 Nordeste 27 Nordeste 0 -- -- 79
2019-06-12 21:00:00 12 18 Nordeste 31 Nordeste 0 -- -- 69
2019-06-12 20:00:00 16.6 8 Nordeste 15 Nordeste 0 -- -- 48
2019-06-12 19:00:00 15.9 7 Sudoeste 18 Oeste 0 -- -- 40
2019-06-12 18:00:00 16.7 8 Oeste 19 Sudoeste 0 -- -- 38
2019-06-12 17:00:00 16.1 9 Sur 24 Sur 0 -- -- 34
2019-06-12 16:00:00 17.3 10 Sudoeste 27 Sur 0 -- -- 32
2019-06-12 15:00:00 16.3 12 Sudoeste 23 Sur 0 -- -- 36
2019-06-12 14:00:00 14.6 11 Sur 26 Sudoeste 0 -- -- 44
2019-06-12 13:00:00 14.5 12 Sur 24 Sur 0 -- -- 41
2019-06-12 12:00:00 12.9 13 Sur 24 Sur 0 -- -- 44
2019-06-12 11:00:00 12.3 9 Sur 26 Sur 0 -- -- 56
2019-06-12 10:00:00 9.6 11 Sur 23 Sur 0 -- -- 63
2019-06-12 09:00:00 7.4 4 Este 13 Nordeste 0 -- -- 81
2019-06-12 08:00:00 3.6 2 Norte 10 Norte 0 -- -- 100
2019-06-12 07:00:00 1.9 0 Calma 4 Sudeste 0 -- -- 100
2019-06-12 06:00:00 2.2 0 Calma 8 Noroeste 0 -- -- 100
2019-06-12 05:00:00 2.5 2 Norte 5 Nordeste 0 -- -- 100
2019-06-12 04:00:00 2.8 2 Nordeste 4 Este 0 -- -- 100
2019-06-12 03:00:00 3.5 0 Calma 8 Sudoeste 0 -- -- 100
2019-06-12 02:00:00 3.8 2 Noroeste 6 Noroeste 0 -- -- 99
2019-06-12 01:00:00 4.4 3 Noroeste 8 Nordeste 0 -- -- 98
2019-06-12 00:00:00 5.9 3 Nordeste 9 Nordeste 0.2 -- -- 97
2019-06-11 23:00:00 6.1 4 Nordeste 9 Nordeste 0 -- -- 96
2019-06-11 22:00:00 6.8 2 Nordeste 8 Noroeste 0 -- -- 94
2019-06-11 21:00:00 7.3 5 Norte 17 Nordeste 0 -- -- 93
2019-06-11 20:00:00 7.8 7 Norte 27 Norte 0 -- -- 89
2019-06-11 19:00:00 8.4 6 Nordeste 21 Nordeste 0 -- -- 86
2019-06-11 18:00:00 9.3 10 Norte 30 Norte 0.4 -- -- 86
2019-06-11 17:00:00 12.9 12 Norte 28 Noroeste 0.2 -- -- 64
2019-06-11 16:00:00 13.9 10 Noroeste 35 Norte 0 -- -- 71
2019-06-11 15:00:00 11.3 6 Nordeste 36 Norte 0.6 -- -- 91
2019-06-11 14:00:00 10.5 11 Nordeste 31 Norte 0.4 -- -- 80
2019-06-11 13:00:00 10.8 19 Norte 47 Norte 0 -- -- 72
2019-06-11 12:00:00 10.5 12 Norte 29 Noroeste 0.2 -- -- 77
2019-06-11 11:00:00 9.3 10 Nordeste 19 Este 0.2 -- -- 83
2019-06-11 10:00:00 7.4 8 Nordeste 15 Nordeste 0 -- -- 92
2019-06-11 09:00:00 7.8 3 Nordeste 5 Nordeste 0 -- -- 94
2019-06-11 08:00:00 6.5 4 Norte 9 Nordeste 0 -- -- 98
2019-06-11 07:00:00 5.9 3 Norte 13 Nordeste 0 -- -- 99
2019-06-11 06:00:00 5.7 4 Norte 13 Norte 0.2 -- -- 99
2019-06-11 05:00:00 6 2 Norte 9 Nordeste 0 -- -- 98
2019-06-11 04:00:00 6.2 2 Nordeste 4 Noroeste 0.4 -- -- 98
2019-06-11 03:00:00 6.6 2 Oeste 8 Norte 0 -- -- 95
2019-06-11 02:00:00 7 2 Norte 12 Nordeste 0.2 -- -- 92
2019-06-11 01:00:00 7.3 6 Norte 14 Nordeste 0 -- -- 87
2019-06-11 00:00:00 7.5 4 Nordeste 23 Nordeste 0 -- -- 85
2019-06-10 23:00:00 7.8 17 Nordeste 31 Nordeste 0 -- -- 82
2019-06-10 22:00:00 8.6 12 Nordeste 26 Nordeste 0 -- -- 84
2019-06-10 21:00:00 8.9 12 Norte 30 Este 0 -- -- 81
2019-06-10 20:00:00 9.4 13 Nordeste 32 Nordeste 0 -- -- 81
2019-06-10 19:00:00 10.4 19 Nordeste 38 Nordeste 0 -- -- 75
2019-06-10 18:00:00 11.1 23 Nordeste 44 Nordeste 0 -- -- 73
2019-06-10 17:00:00 11.8 32 Nordeste 53 Nordeste 0 -- -- 71
2019-06-10 16:00:00 14.3 27 Nordeste 50 Nordeste 0 -- -- 62
2019-06-10 15:00:00 13.2 26 Nordeste 41 Nordeste 0 -- -- 66
2019-06-10 14:00:00 15.9 24 Nordeste 41 Nordeste 0 -- -- 60
2019-06-10 13:00:00 14.2 27 Nordeste 44 Nordeste 0 -- -- 63
2019-06-10 12:00:00 14.6 27 Nordeste 48 Este 0 -- -- 66
2019-06-10 11:00:00 13.3 28 Nordeste 49 Nordeste 0 -- -- 68
2019-06-10 10:00:00 12.9 15 Nordeste 36 Nordeste 0 -- -- 71
2019-06-10 09:00:00 11.2 12 Nordeste 27 Noroeste 0 -- -- 80
2019-06-10 08:00:00 9.1 9 Nordeste 25 Este 0 -- -- 86
2019-06-10 07:00:00 8.8 8 Nordeste 31 Nordeste 0 -- -- 89
2019-06-10 06:00:00 8.8 10 Nordeste 31 Noroeste 0 -- -- 89
2019-06-10 05:00:00 9 10 Nordeste 25 Nordeste 0 -- -- 91
2019-06-10 04:00:00 9.1 10 Norte 22 Este 0 -- -- 91
2019-06-10 03:00:00 9.1 9 Nordeste 29 Nordeste 0 -- -- 93
2019-06-10 02:00:00 9.5 13 Norte 35 Norte 0 -- -- 95
2019-06-10 01:00:00 9.8 11 Nordeste 32 Norte 0 -- -- 97
2019-06-10 00:00:00 10.2 11 Norte 35 Nordeste 0 -- -- 97
2019-06-09 23:00:00 10.5 16 Nordeste 38 Nordeste 1.6 -- -- 96
2019-06-09 22:00:00 12.2 10 Nordeste 29 Norte 0 -- -- 82
2019-06-09 21:00:00 12.8 9 Nordeste 30 Este 0 -- -- 82
2019-06-09 20:00:00 14 17 Nordeste 44 Nordeste 0 -- -- 78
2019-06-09 19:00:00 15.4 28 Nordeste 45 Nordeste 0 -- -- 75
2019-06-09 18:00:00 16.8 30 Nordeste 46 Nordeste 0 -- -- 69
2019-06-09 17:00:00 18.9 16 Nordeste 37 Norte 0 -- -- 61
2019-06-09 16:00:00 22.5 9 Sudoeste 25 Sur 0 -- -- 38
2019-06-09 15:00:00 21.5 11 Sudoeste 28 Sudoeste 0 -- -- 39
2019-06-09 14:00:00 22.8 13 Sur 31 Sudoeste 0 -- -- 38
2019-06-09 13:00:00 21.6 12 Sudoeste 33 Sudoeste 0 -- -- 42
2019-06-09 12:00:00 21 14 Sudoeste 34 Sudoeste 0 -- -- 42
2019-06-09 11:00:00 19.8 15 Sudoeste 33 Sudoeste 0 -- -- 46
2019-06-09 10:00:00 18.5 13 Sudoeste 28 Sur 0 -- -- 49
2019-06-09 09:00:00 15.2 4 Sur 13 Noroeste 0 -- -- 75
2019-06-09 08:00:00 10.3 3 Norte 11 Nordeste 0 -- -- 92
2019-06-09 07:00:00 9 4 Nordeste 16 Norte 0 -- -- 95
2019-06-09 06:00:00 9.1 3 Noroeste 12 Noroeste 0 -- -- 94
2019-06-09 05:00:00 9 2 Noroeste 9 Noroeste 0 -- -- 96
2019-06-09 04:00:00 9.1 4 Nordeste 9 Nordeste 0 -- -- 96
2019-06-09 03:00:00 9.9 4 Norte 14 Norte 0 -- -- 95
2019-06-09 02:00:00 9.8 4 Nordeste 9 Noroeste 0 -- -- 95
2019-06-09 01:00:00 10.7 0 Calma 8 Norte 0 -- -- 93
2019-06-09 00:00:00 11.7 3 Norte 9 Norte 0 -- -- 90
2019-06-08 23:00:00 12.4 4 Norte 9 Noroeste 0 -- -- 88
2019-06-08 22:00:00 14.3 0 Calma 18 Nordeste 0 -- -- 74
2019-06-08 21:00:00 15.1 10 Nordeste 27 Nordeste 0 -- -- 70
2019-06-08 20:00:00 16.4 16 Nordeste 35 Nordeste 0 -- -- 65
2019-06-08 19:00:00 19.9 7 Sudoeste 24 Norte 0 -- -- 48
2019-06-08 18:00:00 21.3 8 Sudoeste 34 Sudoeste 0 -- -- 35
2019-06-08 17:00:00 22 9 Sudoeste 32 Sudoeste 0 -- -- 37
2019-06-08 16:00:00 22.3 10 Sudoeste 33 Sudoeste 0 -- -- 31
2019-06-08 15:00:00 21.3 15 Sudoeste 39 Sudoeste 0 -- -- 33
2019-06-08 14:00:00 20.1 15 Sudoeste 37 Sur 0 -- -- 37
2019-06-08 13:00:00 19.9 13 Sudoeste 40 Sudoeste 0 -- -- 34
2019-06-08 12:00:00 18 13 Sudoeste 28 Sudoeste 0 -- -- 39
2019-06-08 11:00:00 16.6 4 Sudeste 9 Sur 0 -- -- 52
2019-06-08 10:00:00 12.4 3 Nordeste 6 Este 0 -- -- 67
2019-06-08 09:00:00 7.4 3 Nordeste 6 Norte 0 -- -- 90
2019-06-08 08:00:00 3.2 4 Norte 8 Noroeste 0 -- -- 100
2019-06-08 07:00:00 1.4 4 Norte 9 Norte 0 -- -- 100
2019-06-08 06:00:00 1.7 5 Norte 8 Norte 0 -- -- 100
2019-06-08 05:00:00 2.2 3 Norte 9 Norte 0 -- -- 100
2019-06-08 04:00:00 2.8 5 Norte 13 Nordeste 0 -- -- 99
2019-06-08 03:00:00 3.7 5 Norte 14 Norte 0 -- -- 99
2019-06-08 02:00:00 4.2 4 Norte 12 Norte 0 -- -- 98
2019-06-08 01:00:00 4.7 5 Norte 13 Noroeste 0 -- -- 98
2019-06-08 00:00:00 5.2 3 Norte 7 Norte 0 -- -- 97
2019-06-07 23:00:00 6.1 4 Norte 17 Nordeste 0 -- -- 94
2019-06-07 22:00:00 8.1 7 Nordeste 26 Nordeste 0 -- -- 85
2019-06-07 21:00:00 9.4 17 Nordeste 29 Nordeste 0 -- -- 78
2019-06-07 20:00:00 11.9 16 Nordeste 35 Este 0 -- -- 68
2019-06-07 19:00:00 13.5 23 Nordeste 35 Nordeste 0 -- -- 65
2019-06-07 18:00:00 16.2 10 Sur 24 Sur 0 -- -- 34
2019-06-07 17:00:00 15.1 9 Sur 24 Sudoeste 0 -- -- 37
2019-06-07 16:00:00 14.7 11 Sur 26 Sur 0 -- -- 40
2019-06-07 15:00:00 16.1 10 Sur 29 Sur 0 -- -- 43
2019-06-07 14:00:00 15.7 7 Sudoeste 22 Sur 0 -- -- 44
2019-06-07 13:00:00 14.7 12 Sur 26 Sudoeste 0 -- -- 48
2019-06-07 12:00:00 13.7 10 Sudoeste 23 Sudoeste 0 -- -- 57
2019-06-07 11:00:00 12.5 8 Sur 31 Sur 0 -- -- 59
2019-06-07 10:00:00 10 11 Sur 24 Sur 0 -- -- 71
2019-06-07 09:00:00 7.9 3 Sudoeste 21 Sur 0.8 -- -- 90
2019-06-07 08:00:00 7.4 9 Sur 28 Sur 0.2 -- -- 89
2019-06-07 07:00:00 7.9 14 Sur 48 Oeste 7.4 -- -- 94
2019-06-07 06:00:00 10.3 13 Sudoeste 40 Sudoeste 8.8 -- -- 93
2019-06-07 05:00:00 13.8 14 Sur 44 Sudeste 0 -- -- 70
2019-06-07 04:00:00 14.7 17 Sudeste 46 Sudoeste 0 -- -- 61
2019-06-07 03:00:00 15 17 Sudeste 45 Sur 0 -- -- 57
2019-06-07 02:00:00 15.3 18 Sur 51 Sur 0 -- -- 54
2019-06-07 01:00:00 15.6 17 Sur 61 Este 0 -- -- 54
2019-06-07 00:00:00 15.8 29 Sudeste 66 Sudeste 0 -- -- 53
2019-06-06 23:00:00 15.7 21 Sudeste 62 Este 0 -- -- 53
2019-06-06 22:00:00 16.2 29 Sudeste 67 Este 0 -- -- 53
2019-06-06 21:00:00 17.2 17 Sudeste 46 Sur 0 -- -- 52
2019-06-06 20:00:00 18.1 19 Sudeste 67 Sudeste 0 -- -- 46
2019-06-06 19:00:00 18.3 12 Sudeste 46 Sur 0 -- -- 43
2019-06-06 18:00:00 18.4 21 Sudoeste 50 Sudoeste 0 -- -- 38
2019-06-06 17:00:00 19.2 18 Sudoeste 42 Sudoeste 0 -- -- 36
2019-06-06 16:00:00 17.7 9 Sur 37 Sudoeste 0 -- -- 40
2019-06-06 15:00:00 17.5 17 Sudoeste 49 Sur 0 -- -- 41
2019-06-06 14:00:00 16.7 23 Sur 53 Sur 0 -- -- 46
2019-06-06 13:00:00 16.2 17 Sudoeste 44 Sudoeste 0 -- -- 51
2019-06-06 12:00:00 15.6 16 Sudoeste 33 Oeste 0 -- -- 55
2019-06-06 11:00:00 14.3 4 Sudeste 14 Sur 0 -- -- 64
2019-06-06 10:00:00 9.7 2 Norte 5 Noroeste 0 -- -- 93
2019-06-06 09:00:00 6.8 0 Calma 4 Norte 0 -- -- 100
2019-06-06 08:00:00 5.1 2 Noroeste 7 Norte 0 -- -- 100
2019-06-06 07:00:00 4.3 2 Noroeste 4 Noroeste 0 -- -- 100
2019-06-06 06:00:00 4.2 3 Norte 10 Norte 0 -- -- 100
2019-06-06 05:00:00 4.2 4 Norte 11 Norte 0 -- -- 100
2019-06-06 04:00:00 4.2 4 Noroeste 15 Nordeste 0 -- -- 100
2019-06-06 03:00:00 4.8 4 Norte 12 Nordeste 0 -- -- 100
2019-06-06 02:00:00 4.6 4 Norte 17 Nordeste 0 -- -- 100
2019-06-06 01:00:00 4.7 3 Norte 15 Norte 0 -- -- 100
2019-06-06 00:00:00 5.5 5 Norte 18 Norte 0 -- -- 99
2019-06-05 23:00:00 6.4 7 Norte 23 Noroeste 0 -- -- 98
2019-06-05 22:00:00 7.3 8 Norte 22 Nordeste 0 -- -- 96
2019-06-05 21:00:00 8.1 13 Nordeste 22 Nordeste 0 -- -- 95
2019-06-05 20:00:00 8.8 5 Norte 21 Norte 0 -- -- 95
2019-06-05 19:00:00 9.9 7 Nordeste 24 Norte 0.2 -- -- 91
2019-06-05 18:00:00 11.3 10 Norte 26 Noroeste 0 -- -- 85
2019-06-05 17:00:00 10.6 11 Norte 22 Norte 0 -- -- 93
2019-06-05 16:00:00 10.4 5 Norte 14 Noroeste 0 -- -- 93
2019-06-05 15:00:00 10.5 3 Este 25 Nordeste 0.4 -- -- 83
2019-06-05 14:00:00 7.7 15 Nordeste 33 Nordeste 0 -- -- 97
2019-06-05 13:00:00 8.1 12 Nordeste 33 Nordeste 2 -- -- 98
2019-06-05 12:00:00 5.7 13 Nordeste 23 Nordeste 8.2 -- -- 100
2019-06-05 11:00:00 6.7 5 Norte 24 Noroeste 6.6 -- -- 100
2019-06-05 10:00:00 7.7 9 Norte 22 Noroeste 6.2 -- -- 100
2019-06-05 09:00:00 8.4 13 Nordeste 21 Nordeste 2.8 -- -- 100
2019-06-05 08:00:00 8.2 5 Nordeste 18 Nordeste 5.2 -- -- 100
2019-06-05 07:00:00 8.4 4 Nordeste 12 Norte 3.2 -- -- 100
2019-06-05 06:00:00 8.1 4 Sur 30 Nordeste 2.2 -- -- 99
2019-06-05 05:00:00 8.1 11 Nordeste 21 Nordeste 1.2 -- -- 97
2019-06-05 04:00:00 8.4 2 Oeste 19 Nordeste 0 -- -- 96
2019-06-05 03:00:00 8.2 9 Nordeste 24 Este 0 -- -- 98
2019-06-05 02:00:00 8.8 10 Este 25 Nordeste 0 -- -- 99
2019-06-05 01:00:00 9.5 13 Nordeste 26 Nordeste 0 -- -- 99
2019-06-05 00:00:00 10.6 4 Nordeste 24 Nordeste 2 -- -- 99
2019-06-04 23:00:00 11.2 3 Este 18 Nordeste 0.6 -- -- 99
2019-06-04 22:00:00 11.5 5 Nordeste 31 Nordeste 3.8 -- -- 97
2019-06-04 21:00:00 11.7 13 Nordeste 40 Nordeste 1.4 -- -- 96
2019-06-04 20:00:00 12.5 14 Nordeste 46 Nordeste 2.6 -- -- 95
2019-06-04 19:00:00 16.4 22 Nordeste 61 Norte 0 -- -- 72
2019-06-04 18:00:00 25.4 6 Sudeste 30 Sudoeste 0 -- -- 31
2019-06-04 17:00:00 27.2 14 Sur 47 Sur 0 -- -- 30
2019-06-04 16:00:00 27 19 Sur 39 Sur 0 -- -- 27
2019-06-04 15:00:00 26.4 15 Sudoeste 47 Sudoeste 0 -- -- 28
2019-06-04 14:00:00 26.5 15 Sudoeste 45 Sudoeste 0 -- -- 28
2019-06-04 13:00:00 25.5 19 Sudoeste 46 Sudoeste 0 -- -- 30
2019-06-04 12:00:00 24.9 20 Sudoeste 41 Sudoeste 0 -- -- 31
2019-06-04 11:00:00 24.4 14 Sudoeste 35 Sudoeste 0 -- -- 31
2019-06-04 10:00:00 22.5 14 Sudoeste 30 Sudoeste 0 -- -- 35
2019-06-04 09:00:00 19.1 9 Sudoeste 21 Sur 0 -- -- 51
2019-06-04 08:00:00 14.5 5 Noroeste 17 Oeste 0 -- -- 67
2019-06-04 07:00:00 13.7 4 Sudoeste 14 Sudoeste 0 -- -- 68
2019-06-04 06:00:00 12.5 5 Noroeste 13 Noroeste 0 -- -- 77
2019-06-04 05:00:00 12.9 6 Noroeste 17 Noroeste 0 -- -- 76
2019-06-04 04:00:00 13.4 4 Noroeste 11 Noroeste 0 -- -- 75
2019-06-04 03:00:00 14.5 4 Oeste 17 Sudoeste 0 -- -- 72
2019-06-04 02:00:00 14.7 5 Noroeste 16 Noroeste 0 -- -- 73
2019-06-04 01:00:00 15.3 8 Noroeste 23 Noroeste 0 -- -- 71
2019-06-04 00:00:00 15.2 10 Noroeste 22 Norte 0 -- -- 73
2019-06-03 23:00:00 15.9 6 Norte 17 Noroeste 0 -- -- 73
2019-06-03 22:00:00 17.2 6 Noroeste 15 Norte 0 -- -- 71
2019-06-03 21:00:00 20.5 4 Noroeste 15 Sudeste 0 -- -- 57
2019-06-03 20:00:00 25.7 10 Sudoeste 26 Sudoeste 0 -- -- 32
2019-06-03 19:00:00 26.6 3 Norte 16 Sudoeste 0 -- -- 36
2019-06-03 18:00:00 27.1 9 Sudoeste 28 Sudoeste 0 -- -- 31
2019-06-03 17:00:00 27.8 11 Sudoeste 27 Sur 0 -- -- 28
2019-06-03 16:00:00 27 12 Sudoeste 29 Sudoeste 0 -- -- 32
2019-06-03 15:00:00 26.7 16 Sudoeste 35 Sudoeste 0 -- -- 36
2019-06-03 14:00:00 26.3 13 Sudoeste 33 Sudoeste 0 -- -- 40
2019-06-03 13:00:00 25.3 13 Sudoeste 28 Sudoeste 0 -- -- 40
2019-06-03 12:00:00 23.7 11 Sur 20 Sudoeste 0 -- -- 48
2019-06-03 11:00:00 20.3 2 Nordeste 8 Norte 0 -- -- 63
2019-06-03 10:00:00 16.5 0 Calma 4 Nordeste 0 -- -- 81
2019-06-03 09:00:00 13.2 0 Calma 7 Noroeste 0 -- -- 94
2019-06-03 08:00:00 11.9 3 Noroeste 11 Noroeste 0 -- -- 96
2019-06-03 07:00:00 11.3 3 Norte 8 Noroeste 0 -- -- 98
2019-06-03 06:00:00 11.4 0 Calma 15 Norte 0 -- -- 98
2019-06-03 05:00:00 11.9 3 Nordeste 9 Norte 0 -- -- 98
2019-06-03 04:00:00 12.6 2 Norte 12 Norte 0 -- -- 98
2019-06-03 03:00:00 13.1 2 Noroeste 7 Norte 0 -- -- 98
2019-06-03 02:00:00 14 0 Calma 8 Norte 0 -- -- 97
2019-06-03 01:00:00 14.9 2 Oeste 6 Norte 0 -- -- 96
2019-06-03 00:00:00 16 2 Noroeste 12 Sur 0 -- -- 93
2019-06-02 23:00:00 17 2 Norte 9 Noroeste 0 -- -- 89
2019-06-02 22:00:00 19.1 6 Noroeste 14 Este 0 -- -- 79
2019-06-02 21:00:00 22 4 Norte 13 Este 0 -- -- 65
2019-06-02 20:00:00 24.5 3 Oeste 24 Nordeste 0 -- -- 49
2019-06-02 19:00:00 26.8 10 Nordeste 23 Nordeste 0 -- -- 48
2019-06-02 18:00:00 26.8 0 Calma 14 Sur 0 -- -- 42
2019-06-02 17:00:00 27.4 3 Oeste 22 Sudoeste 0 -- -- 32
2019-06-02 16:00:00 29.5 8 Sudoeste 23 Sudoeste 0 -- -- 32
2019-06-02 15:00:00 28.8 9 Sudoeste 24 Sudoeste 0 -- -- 27
2019-06-02 14:00:00 28.1 11 Sur 21 Sudoeste 0 -- -- 29
2019-06-02 13:00:00 27.5 10 Sur 21 Sur 0 -- -- 31
2019-06-02 12:00:00 26.3 10 Sudoeste 19 Sur 0 -- -- 30
2019-06-02 11:00:00 24.2 0 Calma 5 Este 0 -- -- 48
2019-06-02 10:00:00 19.3 2 Norte 5 Nordeste 0 -- -- 69
2019-06-02 09:00:00 14.5 2 Nordeste 5 Norte 0 -- -- 80
2019-06-02 08:00:00 9 2 Norte 10 Noroeste 0 -- -- 100
2019-06-02 07:00:00 7.8 4 Norte 10 Norte 0 -- -- 99
2019-06-02 06:00:00 7.9 4 Norte 9 Norte 0 -- -- 99
2019-06-02 05:00:00 8.5 3 Norte 10 Noroeste 0 -- -- 98
2019-06-02 04:00:00 9 4 Norte 9 Norte 0 -- -- 98
2019-06-02 03:00:00 9.4 3 Norte 9 Norte 0 -- -- 97
2019-06-02 02:00:00 10.3 6 Norte 9 Noroeste 0 -- -- 96
2019-06-02 01:00:00 11.1 4 Noroeste 10 Norte 0 -- -- 93
2019-06-02 00:00:00 12.2 7 Norte 14 Norte 0 -- -- 91
2019-06-01 23:00:00 13.7 5 Norte 9 Norte 0 -- -- 86
2019-06-01 22:00:00 16 3 Norte 6 Norte 0 -- -- 77
2019-06-01 21:00:00 18.5 3 Norte 8 Noroeste 0 -- -- 66
2019-06-01 20:00:00 24.8 2 Noroeste 12 Sudoeste 0 -- -- 39
2019-06-01 19:00:00 26.9 7 Sudoeste 18 Sur 0 -- -- 33
2019-06-01 18:00:00 27.5 7 Sudoeste 21 Noroeste 0 -- -- 30
2019-06-01 17:00:00 28.4 6 Sudoeste 21 Sudoeste 0 -- -- 31
2019-06-01 16:00:00 28.6 5 Oeste 23 Sur 0 -- -- 33
2019-06-01 15:00:00 27.2 10 Sudoeste 25 Sur 0 -- -- 29
2019-06-01 14:00:00 26.4 12 Sur 28 Sudoeste 0 -- -- 31
2019-06-01 13:00:00 25.2 12 Sur 27 Sudoeste 0 -- -- 38
2019-06-01 12:00:00 24.5 8 Sudoeste 22 Sudoeste 0 -- -- 41
2019-06-01 11:00:00 22.5 10 Sudoeste 20 Sudoeste 0 -- -- 49
2019-06-01 10:00:00 19 0 Calma 5 Nordeste 0 -- -- 72
2019-06-01 09:00:00 13.2 2 Norte 4 Norte 0 -- -- 87
2019-06-01 08:00:00 8.4 2 Norte 8 Noroeste 0 -- -- 100
2019-06-01 07:00:00 7.2 4 Norte 8 Norte 0 -- -- 100
2019-06-01 06:00:00 7.6 3 Norte 7 Norte 0 -- -- 99
2019-06-01 05:00:00 8.1 4 Norte 9 Noroeste 0 -- -- 99
2019-06-01 04:00:00 8.9 4 Noroeste 8 Norte 0 -- -- 98
2019-06-01 03:00:00 9.6 4 Norte 9 Norte 0 -- -- 98
2019-06-01 02:00:00 10.4 6 Norte 10 Norte 0 -- -- 97
2019-06-01 01:00:00 11.2 6 Norte 10 Norte 0 -- -- 96
2019-06-01 00:00:00 12.1 4 Norte 9 Norte 0 -- -- 93
2019-05-31 23:00:00 13.3 4 Norte 8 Noroeste 0 -- -- 91
2019-05-31 22:00:00 15 3 Nordeste 9 Noroeste 0 -- -- 85
2019-05-31 21:00:00 17.4 3 Noroeste 18 Nordeste 0 -- -- 73
2019-05-31 20:00:00 22.1 13 Nordeste 27 Este 0 -- -- 53
2019-05-31 19:00:00 23.8 17 Nordeste 29 Nordeste 0 -- -- 49
2019-05-31 18:00:00 25.4 9 Norte 26 Nordeste 0 -- -- 45
2019-05-31 17:00:00 26 11 Nordeste 30 Nordeste 0 -- -- 46
2019-05-31 16:00:00 25.9 10 Sur 21 Sur 0 -- -- 37
2019-05-31 15:00:00 25.3 10 Sur 22 Sur 0 -- -- 38
2019-05-31 14:00:00 24.5 12 Sur 22 Sudoeste 0 -- -- 38
2019-05-31 13:00:00 23.6 12 Sur 23 Sur 0 -- -- 40
2019-05-31 12:00:00 22.2 11 Sur 21 Sudoeste 0 -- -- 39
2019-05-31 11:00:00 20.3 6 Sur 14 Sur 0 -- -- 46
2019-05-31 10:00:00 16.1 0 Calma 5 Norte 0 -- -- 64
2019-05-31 09:00:00 11.1 2 Nordeste 4 Nordeste 0 -- -- 80
2019-05-31 08:00:00 5.5 4 Norte 8 Norte 0 -- -- 100
2019-05-31 07:00:00 4.7 5 Norte 10 Nordeste 0 -- -- 100
2019-05-31 06:00:00 5 6 Norte 9 Noroeste 0 -- -- 100
2019-05-31 05:00:00 5.3 2 Nordeste 9 Norte 0 -- -- 99
2019-05-31 04:00:00 6.3 3 Norte 9 Norte 0 -- -- 98
2019-05-31 03:00:00 6.9 4 Norte 9 Norte 0 -- -- 98
2019-05-31 02:00:00 7.8 3 Norte 9 Norte 0 -- -- 97
2019-05-31 01:00:00 8.7 4 Norte 9 Norte 0 -- -- 96
2019-05-31 00:00:00 10.2 0 Calma 6 Noroeste 0 -- -- 94
2019-05-30 23:00:00 12.9 3 Noroeste 17 Nordeste 0 -- -- 81
2019-05-30 22:00:00 15 12 Nordeste 37 Nordeste 0 -- -- 73
2019-05-30 21:00:00 15.9 17 Norte 42 Nordeste 0 -- -- 72
2019-05-30 20:00:00 18 17 Nordeste 38 Nordeste 0 -- -- 62
2019-05-30 19:00:00 20.1 24 Nordeste 44 Nordeste 0 -- -- 53
2019-05-30 18:00:00 21.6 30 Nordeste 46 Nordeste 0 -- -- 47
2019-05-30 17:00:00 23 22 Nordeste 45 Nordeste 0 -- -- 43
2019-05-30 16:00:00 23.4 26 Nordeste 42 Nordeste 0 -- -- 42
2019-05-30 15:00:00 23.8 22 Nordeste 48 Nordeste 0 -- -- 39
2019-05-30 14:00:00 22.3 32 Nordeste 46 Nordeste 0 -- -- 41
2019-05-30 13:00:00 22.2 24 Nordeste 42 Nordeste 0 -- -- 41
2019-05-30 12:00:00 20.6 25 Nordeste 39 Nordeste 0 -- -- 45
2019-05-30 11:00:00 19.9 22 Nordeste 31 Nordeste 0 -- -- 50
2019-05-30 10:00:00 17.8 11 Nordeste 21 Nordeste 0 -- -- 57
2019-05-30 09:00:00 11.6 7 Norte 16 Noroeste 0 -- -- 80
2019-05-30 08:00:00 5.6 3 Nordeste 10 Noroeste 0 -- -- 100
2019-05-30 07:00:00 4.2 4 Norte 12 Norte 0 -- -- 100
2019-05-30 06:00:00 4.4 2 Nordeste 8 Norte 0 -- -- 99
2019-05-30 05:00:00 4.7 4 Nordeste 9 Norte 0 -- -- 99
2019-05-30 04:00:00 4.8 3 Norte 9 Norte 0 -- -- 99
2019-05-30 03:00:00 5 3 Norte 6 Noroeste 0 -- -- 98
2019-05-30 02:00:00 6.1 0 Calma 9 Noroeste 0 -- -- 94
2019-05-30 01:00:00 7.5 4 Noroeste 22 Nordeste 0 -- -- 87
2019-05-30 00:00:00 9 11 Nordeste 31 Nordeste 0 -- -- 81
2019-05-29 23:00:00 9.3 12 Nordeste 32 Nordeste 0 -- -- 81
2019-05-29 22:00:00 9.6 17 Norte 47 Norte 0 -- -- 78
2019-05-29 21:00:00 10.1 22 Norte 52 Norte 0 -- -- 77
2019-05-29 20:00:00 10.4 32 Norte 64 Norte 0 -- -- 77
2019-05-29 19:00:00 11.3 26 Norte 53 Norte 0 -- -- 70
2019-05-29 18:00:00 11.3 19 Norte 45 Nordeste 0 -- -- 73
2019-05-29 17:00:00 14 26 Nordeste 51 Nordeste 0 -- -- 64
2019-05-29 16:00:00 14.2 30 Nordeste 59 Nordeste 0 -- -- 61
2019-05-29 15:00:00 13.7 28 Nordeste 64 Nordeste 0 -- -- 61
2019-05-29 14:00:00 13.5 31 Nordeste 48 Nordeste 0 -- -- 61
2019-05-29 13:00:00 13 28 Nordeste 50 Nordeste 0 -- -- 59
2019-05-29 12:00:00 13.4 23 Nordeste 50 Nordeste 0 -- -- 58
2019-05-29 11:00:00 12.6 14 Norte 35 Norte 0 -- -- 67
2019-05-29 10:00:00 9.8 13 Norte 31 Norte 0 -- -- 71
2019-05-29 09:00:00 8.5 10 Norte 30 Este 0 -- -- 80
2019-05-29 08:00:00 7.5 21 Nordeste 37 Nordeste 0 -- -- 78
2019-05-29 07:00:00 7 20 Nordeste 37 Nordeste 0 -- -- 82
2019-05-29 06:00:00 7 21 Nordeste 41 Norte 0 -- -- 82
2019-05-29 05:00:00 6.6 19 Nordeste 35 Nordeste 0 -- -- 88
2019-05-29 04:00:00 6.5 15 Nordeste 30 Nordeste 0 -- -- 89
2019-05-29 03:00:00 6.2 9 Nordeste 40 Nordeste 0.2 -- -- 92
2019-05-29 02:00:00 6.1 15 Nordeste 38 Nordeste 0.4 -- -- 94
2019-05-29 01:00:00 6.5 20 Nordeste 40 Nordeste 0 -- -- 90
2019-05-29 00:00:00 6.4 20 Nordeste 36 Nordeste 0 -- -- 95
2019-05-28 23:00:00 6.5 16 Nordeste 24 Nordeste 0.8 -- -- 97
2019-05-28 22:00:00 6.7 9 Norte 28 Nordeste 0.4 -- -- 93
2019-05-28 21:00:00 7.3 16 Nordeste 29 Sudeste 0.2 -- -- 88
2019-05-28 20:00:00 8.4 12 Nordeste 40 Norte 0 -- -- 83
2019-05-28 19:00:00 9.6 12 Nordeste 39 Nordeste 0 -- -- 80
2019-05-28 18:00:00 11.9 13 Norte 35 Norte 0 -- -- 66
2019-05-28 17:00:00 10.1 17 Nordeste 36 Nordeste 0 -- -- 74
2019-05-28 16:00:00 10 13 Norte 33 Noroeste 0 -- -- 78
2019-05-28 15:00:00 10.3 19 Nordeste 46 Nordeste 0 -- -- 74
2019-05-28 14:00:00 12.6 11 Nordeste 35 Este 0 -- -- 69
2019-05-28 13:00:00 10.7 16 Nordeste 37 Nordeste 0 -- -- 75
2019-05-28 12:00:00 9.7 13 Nordeste 32 Nordeste 0 -- -- 80
2019-05-28 11:00:00 9.3 14 Nordeste 35 Este 0 -- -- 84
2019-05-28 10:00:00 8.9 16 Nordeste 36 Nordeste 0 -- -- 79
2019-05-28 09:00:00 8.4 22 Nordeste 36 Nordeste 0 -- -- 74
2019-05-28 08:00:00 8.4 20 Norte 43 Norte 0 -- -- 74
2019-05-28 07:00:00 7.9 19 Nordeste 35 Nordeste 0 -- -- 71
2019-05-28 06:00:00 7.2 14 Norte 37 Norte 0 -- -- 78
2019-05-28 05:00:00 7.8 17 Norte 30 Noroeste 0 -- -- 79
2019-05-28 04:00:00 8 12 Norte 32 Nordeste 0 -- -- 76
2019-05-28 03:00:00 7.5 16 Norte 38 Norte 0 -- -- 74
2019-05-28 02:00:00 7.8 12 Norte 32 Norte 0 -- -- 77
2019-05-28 01:00:00 9 15 Nordeste 41 Nordeste 0 -- -- 74
2019-05-28 00:00:00 9.3 21 Norte 39 Nordeste 0 -- -- 79